createdAt,value
2023-04-20T00:00:51.922Z,9.50
2023-04-20T00:03:21.474Z,9.50
2023-04-20T00:05:50.347Z,9.40
2023-04-20T00:08:18.465Z,9.40
2023-04-20T00:10:46.742Z,9.40
2023-04-20T00:13:14.653Z,9.40
2023-04-20T00:15:42.574Z,9.40
2023-04-20T00:18:10.529Z,9.40
2023-04-20T00:20:40.061Z,9.30
2023-04-20T00:23:08.364Z,9.30
2023-04-20T00:25:36.291Z,9.30
2023-04-20T00:28:04.218Z,9.30
2023-04-20T00:30:32.176Z,9.30
2023-04-20T00:33:00.248Z,9.30
2023-04-20T00:35:28.270Z,9.30
2023-04-20T00:37:57.513Z,9.30
2023-04-20T00:40:25.601Z,9.20
2023-04-20T00:42:53.556Z,9.20
2023-04-20T00:45:22.207Z,9.10
2023-04-20T00:47:50.355Z,9.00
2023-04-20T00:50:18.593Z,8.90
2023-04-20T00:52:47.729Z,8.90
2023-04-20T00:55:18.343Z,8.80
2023-04-20T00:57:46.252Z,8.80
2023-04-20T01:00:15.073Z,8.70
2023-04-20T01:02:43.191Z,8.70
2023-04-20T01:05:11.558Z,8.70
2023-04-20T01:07:39.548Z,8.70
2023-04-20T01:10:08.998Z,8.60
2023-04-20T01:12:38.322Z,8.60
2023-04-20T01:15:08.107Z,8.60
2023-04-20T01:17:38.058Z,8.50
2023-04-20T01:20:08.960Z,8.50
2023-04-20T01:22:45.181Z,8.50
2023-04-20T01:25:13.101Z,8.50
2023-04-20T01:27:41.125Z,8.50
2023-04-20T01:30:10.400Z,8.50
2023-04-20T01:32:38.877Z,8.50
2023-04-20T01:35:08.340Z,8.40
2023-04-20T01:37:36.464Z,8.50
2023-04-20T01:40:07.298Z,8.40
2023-04-20T01:42:35.250Z,8.40
2023-04-20T01:45:03.227Z,8.40
2023-04-20T01:47:32.174Z,8.40
2023-04-20T01:50:00.097Z,8.40
2023-04-20T01:52:28.200Z,8.40
2023-04-20T01:54:56.128Z,8.30
2023-04-20T01:57:25.342Z,8.30
2023-04-20T01:59:53.258Z,8.30
2023-04-20T02:02:21.254Z,8.20
2023-04-20T02:04:49.238Z,8.20
2023-04-20T02:07:17.120Z,8.20
2023-04-20T02:09:45.038Z,8.10
2023-04-20T02:12:12.926Z,8.10
2023-04-20T02:14:42.167Z,8.10
2023-04-20T02:17:10.445Z,8.10
2023-04-20T02:19:38.406Z,8.10
2023-04-20T02:22:06.409Z,8.00
2023-04-20T02:24:34.438Z,8.00
2023-04-20T02:27:02.428Z,8.00
2023-04-20T02:29:30.347Z,8.00
2023-04-20T02:31:59.654Z,7.90
2023-04-20T02:34:27.576Z,7.90
2023-04-20T02:36:55.661Z,7.90
2023-04-20T02:39:23.593Z,7.80
2023-04-20T02:41:51.707Z,7.80
2023-04-20T02:44:19.622Z,7.80
2023-04-20T02:46:47.556Z,7.80
2023-04-20T02:49:16.994Z,7.80
2023-04-20T02:51:45.082Z,7.80
2023-04-20T02:54:13.080Z,7.80
2023-04-20T02:56:40.986Z,7.80
2023-04-20T02:59:09.200Z,7.80
2023-04-20T03:01:37.294Z,7.80
2023-04-20T03:04:05.704Z,7.80
2023-04-20T03:06:38.138Z,7.80
2023-04-20T03:09:08.864Z,7.70
2023-04-20T03:11:36.801Z,7.70
2023-04-20T03:14:04.712Z,7.70
2023-04-20T03:16:32.686Z,7.70
2023-04-20T03:19:00.673Z,7.70
2023-04-20T03:21:28.608Z,7.70
2023-04-20T03:23:57.863Z,7.70
2023-04-20T03:26:25.901Z,7.70
2023-04-20T03:28:54.171Z,7.70
2023-04-20T03:31:22.114Z,7.70
2023-04-20T03:33:49.999Z,7.60
2023-04-20T03:36:17.886Z,7.60
2023-04-20T03:38:45.753Z,7.60
2023-04-20T03:41:15.819Z,7.60
2023-04-20T03:43:43.742Z,7.50
2023-04-20T03:46:11.711Z,7.50
2023-04-20T03:48:42.908Z,7.50
2023-04-20T03:51:10.797Z,7.50
2023-04-20T03:53:39.696Z,7.50
2023-04-20T03:56:08.351Z,7.40
2023-04-20T03:58:37.601Z,7.40
2023-04-20T04:01:07.938Z,7.40
2023-04-20T04:03:36.211Z,7.30
2023-04-20T04:06:04.738Z,7.20
2023-04-20T04:08:32.630Z,7.20
2023-04-20T04:11:01.489Z,7.20
2023-04-20T04:13:29.508Z,7.10
2023-04-20T04:15:58.764Z,7.10
2023-04-20T04:18:29.649Z,7.10
2023-04-20T04:20:57.589Z,7.10
2023-04-20T04:23:26.289Z,7.10
2023-04-20T04:25:54.674Z,7.10
2023-04-20T04:28:22.543Z,7.10
2023-04-20T04:30:50.437Z,7.10
2023-04-20T04:33:20.172Z,7.00
2023-04-20T04:35:48.538Z,7.00
2023-04-20T04:38:16.582Z,7.00
2023-04-20T04:40:45.862Z,7.00
2023-04-20T04:43:13.907Z,7.00
2023-04-20T04:45:41.975Z,6.90
2023-04-20T04:48:12.161Z,6.90
2023-04-20T04:50:41.862Z,7.00
2023-04-20T04:53:09.745Z,7.00
2023-04-20T04:55:37.645Z,7.00
2023-04-20T04:58:06.788Z,7.00
2023-04-20T05:00:34.899Z,7.00
2023-04-20T05:03:02.939Z,7.00
2023-04-20T05:05:31.080Z,7.00
2023-04-20T05:08:00.306Z,7.00
2023-04-20T05:10:28.272Z,7.00
2023-04-20T05:12:58.493Z,7.00
2023-04-20T05:15:27.219Z,7.00
2023-04-20T05:17:55.149Z,7.00
2023-04-20T05:20:23.049Z,7.00
2023-04-20T05:22:51.003Z,7.00
2023-04-20T05:25:20.274Z,7.00
2023-04-20T05:27:48.163Z,7.00
2023-04-20T05:30:21.176Z,7.00
2023-04-20T05:32:52.008Z,7.00
2023-04-20T05:35:21.159Z,7.00
2023-04-20T05:37:49.351Z,7.00
2023-04-20T05:40:17.316Z,7.00
2023-04-20T05:42:46.621Z,7.00
2023-04-20T05:45:14.514Z,7.00
2023-04-20T05:47:42.530Z,7.00
2023-04-20T05:50:11.448Z,7.00
2023-04-20T05:52:39.321Z,7.00
2023-04-20T05:55:07.896Z,7.00
2023-04-20T05:57:41.796Z,7.00
2023-04-20T06:00:12.759Z,7.00
2023-04-20T06:02:41.410Z,7.00
2023-04-20T06:05:10.856Z,7.00
2023-04-20T06:07:39.557Z,7.00
2023-04-20T06:10:08.579Z,7.00
2023-04-20T06:12:38.608Z,7.00
2023-04-20T06:15:09.818Z,7.00
2023-04-20T06:17:40.564Z,7.00
2023-04-20T06:20:10.016Z,7.00
2023-04-20T06:22:38.441Z,7.10
2023-04-20T06:25:07.118Z,7.10
2023-04-20T06:27:35.018Z,7.10
2023-04-20T06:30:03.662Z,7.10
2023-04-20T06:32:31.587Z,7.10
2023-04-20T06:35:00.888Z,7.10
2023-04-20T06:37:28.861Z,7.10
2023-04-20T06:39:56.805Z,7.10
2023-04-20T06:42:24.701Z,7.10
2023-04-20T06:44:52.585Z,7.10
2023-04-20T06:47:20.732Z,7.10
2023-04-20T06:49:48.722Z,7.20
2023-04-20T06:52:17.951Z,7.20
2023-04-20T06:54:45.927Z,7.20
2023-04-20T06:57:13.858Z,7.20
2023-04-20T06:59:41.864Z,7.20
2023-04-20T07:02:09.906Z,7.20
2023-04-20T07:04:38.004Z,7.20
2023-04-20T07:07:05.925Z,7.20
2023-04-20T07:09:35.344Z,7.20
2023-04-20T07:12:03.780Z,7.20
2023-04-20T07:14:31.722Z,7.20
2023-04-20T07:16:59.651Z,7.20
2023-04-20T07:19:27.533Z,7.20
2023-04-20T07:21:55.453Z,7.20
2023-04-20T07:24:23.350Z,7.20
2023-04-20T07:26:52.831Z,7.20
2023-04-20T07:29:21.020Z,7.20
2023-04-20T07:31:51.744Z,7.20
2023-04-20T07:34:19.815Z,7.20
2023-04-20T07:36:47.929Z,7.20
2023-04-20T07:39:16.389Z,7.20
2023-04-20T07:41:44.815Z,7.20
2023-04-20T07:44:15.354Z,7.20
2023-04-20T07:46:43.324Z,7.20
2023-04-20T07:49:11.263Z,7.20
2023-04-20T07:51:39.245Z,7.30
2023-04-20T07:54:07.828Z,7.30
2023-04-20T07:56:35.734Z,7.30
2023-04-20T07:59:03.940Z,7.30
2023-04-20T08:01:33.833Z,7.30
2023-04-20T08:04:02.032Z,7.30
2023-04-20T08:06:30.186Z,7.30
2023-04-20T08:08:58.131Z,7.30
2023-04-20T08:11:26.990Z,7.30
2023-04-20T08:13:57.182Z,7.30
2023-04-20T08:16:26.664Z,7.30
2023-04-20T08:19:00.498Z,7.30
2023-04-20T08:21:28.682Z,7.40
2023-04-20T08:23:56.755Z,7.40
2023-04-20T08:26:25.269Z,7.40
2023-04-20T08:28:53.216Z,7.40
2023-04-20T08:31:21.188Z,7.40
2023-04-20T08:33:49.119Z,7.40
2023-04-20T08:36:18.737Z,7.40
2023-04-20T08:38:46.986Z,7.40
2023-04-20T08:41:15.238Z,7.40
2023-04-20T08:43:43.604Z,7.40
2023-04-20T08:46:11.590Z,7.40
2023-04-20T08:48:40.491Z,7.40
2023-04-20T08:51:08.429Z,7.40
2023-04-20T08:53:37.703Z,7.50
2023-04-20T08:56:05.997Z,7.50
2023-04-20T08:58:34.228Z,7.60
2023-04-20T09:01:02.186Z,7.60
2023-04-20T09:03:35.014Z,7.70
2023-04-20T09:06:05.714Z,7.70
2023-04-20T09:08:38.440Z,7.80
2023-04-20T09:11:06.623Z,7.90
2023-04-20T09:13:35.200Z,8.00
2023-04-20T09:16:12.658Z,8.00
2023-04-20T09:18:40.587Z,8.10
2023-04-20T09:21:12.380Z,8.10
2023-04-20T09:23:42.068Z,8.20
2023-04-20T09:26:19.081Z,8.20
2023-04-20T09:28:47.341Z,8.30
2023-04-20T09:31:19.932Z,8.40
2023-04-20T09:33:57.159Z,8.50
2023-04-20T09:36:25.963Z,8.50
2023-04-20T09:39:06.821Z,8.50
2023-04-20T09:41:36.858Z,8.50
2023-04-20T09:44:05.517Z,8.50
2023-04-20T09:46:35.260Z,8.40
2023-04-20T09:49:05.260Z,8.40
2023-04-20T09:51:35.443Z,8.40
2023-04-20T09:54:06.543Z,8.30
2023-04-20T09:56:35.850Z,8.30
2023-04-20T09:59:04.555Z,8.30
2023-04-20T10:01:34.739Z,8.30
2023-04-20T10:04:04.732Z,8.40
2023-04-20T10:06:35.859Z,8.40
2023-04-20T10:09:07.169Z,8.50
2023-04-20T10:11:51.812Z,8.60
2023-04-20T10:14:24.061Z,8.90
2023-04-20T10:17:01.276Z,9.20
2023-04-20T10:19:38.953Z,9.50
2023-04-20T10:22:07.806Z,9.70
2023-04-20T10:24:38.259Z,9.80
2023-04-20T10:27:16.905Z,9.80
2023-04-20T10:29:44.913Z,9.70
2023-04-20T10:32:22.998Z,9.60
2023-04-20T10:35:02.190Z,9.50
2023-04-20T10:37:32.112Z,9.40
2023-04-20T10:40:02.006Z,9.30
2023-04-20T10:42:30.571Z,9.30
2023-04-20T10:44:58.523Z,9.20
2023-04-20T10:47:30.831Z,9.20
2023-04-20T10:50:07.913Z,9.20
2023-04-20T10:52:36.616Z,9.20
2023-04-20T10:55:08.402Z,9.20
2023-04-20T10:57:37.498Z,9.20
2023-04-20T11:00:16.696Z,9.20
2023-04-20T11:02:49.920Z,9.20
2023-04-20T11:05:20.487Z,9.20
2023-04-20T11:07:52.531Z,9.20
2023-04-20T11:10:22.578Z,9.30
2023-04-20T11:12:51.038Z,9.30
2023-04-20T11:15:19.194Z,9.30
2023-04-20T11:17:48.823Z,9.40
2023-04-20T11:20:18.465Z,9.50
2023-04-20T11:22:57.216Z,9.50
2023-04-20T11:25:27.895Z,9.60
2023-04-20T11:28:07.420Z,9.60
2023-04-20T11:30:40.061Z,9.60
2023-04-20T11:33:08.368Z,9.60
2023-04-20T11:35:38.103Z,9.60
2023-04-20T11:38:06.136Z,9.60
2023-04-20T11:40:35.785Z,9.60
2023-04-20T11:43:04.602Z,9.60
2023-04-20T11:45:36.314Z,9.60
2023-04-20T11:48:06.027Z,9.60
2023-04-20T11:50:34.141Z,9.70
2023-04-20T11:53:02.251Z,9.70
2023-04-20T11:55:30.186Z,9.70
2023-04-20T11:57:59.444Z,9.70
2023-04-20T12:00:27.435Z,9.70
2023-04-20T12:02:55.458Z,9.70
2023-04-20T12:05:23.677Z,9.70
2023-04-20T12:07:51.781Z,9.70
2023-04-20T12:10:19.691Z,9.70
2023-04-20T12:12:47.826Z,9.70
2023-04-20T12:15:17.203Z,9.60
2023-04-20T12:17:45.408Z,9.60
2023-04-20T12:20:14.358Z,9.60
2023-04-20T12:22:42.281Z,9.50
2023-04-20T12:25:10.548Z,9.50
2023-04-20T12:27:38.689Z,9.50
2023-04-20T12:30:09.246Z,9.50
2023-04-20T12:32:39.482Z,9.40
2023-04-20T12:35:09.469Z,9.40
2023-04-20T12:37:37.431Z,9.40
2023-04-20T12:40:07.074Z,9.40
2023-04-20T12:42:34.992Z,9.40
2023-04-20T12:45:03.276Z,9.40
2023-04-20T12:47:31.328Z,9.40
2023-04-20T12:50:00.935Z,9.50
2023-04-20T12:52:29.083Z,9.50
2023-04-20T12:54:56.952Z,9.60
2023-04-20T12:57:24.902Z,9.80
2023-04-20T12:59:52.793Z,10.00
2023-04-20T13:02:20.927Z,10.20
2023-04-20T13:04:48.961Z,10.40
2023-04-20T13:07:18.281Z,10.50
2023-04-20T13:09:46.184Z,10.50
2023-04-20T13:12:14.349Z,10.50
2023-04-20T13:14:42.678Z,10.50
2023-04-20T13:17:10.597Z,10.50
2023-04-20T13:19:38.571Z,10.50
2023-04-20T13:22:06.620Z,10.50
2023-04-20T13:24:35.872Z,10.40
2023-04-20T13:27:04.492Z,10.40
2023-04-20T13:29:32.566Z,10.40
2023-04-20T13:32:00.491Z,10.40
2023-04-20T13:34:28.577Z,10.50
2023-04-20T13:36:56.624Z,10.40
2023-04-20T13:39:27.682Z,10.40
2023-04-20T13:41:56.985Z,10.50
2023-04-20T13:44:25.151Z,10.50
2023-04-20T13:46:53.133Z,10.50
2023-04-20T13:49:22.747Z,10.60
2023-04-20T13:51:51.064Z,10.60
2023-04-20T13:54:19.442Z,10.60
2023-04-20T13:56:47.605Z,10.60
2023-04-20T13:59:16.891Z,10.70
2023-04-20T14:01:44.854Z,10.70
2023-04-20T14:04:13.102Z,10.70
2023-04-20T14:06:41.122Z,10.80
2023-04-20T14:09:09.025Z,10.80
2023-04-20T14:11:36.962Z,10.90
2023-04-20T14:14:05.840Z,10.90
2023-04-20T14:16:43.144Z,10.90
2023-04-20T14:19:11.140Z,11.00
2023-04-20T14:21:40.102Z,11.00
2023-04-20T14:24:08.494Z,11.00
2023-04-20T14:26:36.473Z,11.10
2023-04-20T14:29:04.808Z,11.10
2023-04-20T14:31:34.834Z,11.20
2023-04-20T14:34:02.868Z,11.20
2023-04-20T14:36:32.350Z,11.20
2023-04-20T14:39:00.339Z,11.20
2023-04-20T14:41:28.341Z,11.30
2023-04-20T14:43:56.266Z,11.40
2023-04-20T14:46:24.239Z,11.40
2023-04-20T14:48:53.514Z,11.50
2023-04-20T14:51:21.459Z,11.50
2023-04-20T14:53:49.429Z,11.60
2023-04-20T14:56:17.378Z,11.60
2023-04-20T14:58:45.293Z,11.70
2023-04-20T15:01:13.245Z,11.80
2023-04-20T15:03:41.346Z,11.80
2023-04-20T15:06:11.419Z,11.90
2023-04-20T15:08:39.337Z,11.90
2023-04-20T15:11:07.242Z,12.00
2023-04-20T15:13:35.319Z,12.10
2023-04-20T15:16:03.287Z,12.20
2023-04-20T15:18:31.320Z,12.30
2023-04-20T15:20:59.438Z,12.40
2023-04-20T15:23:28.705Z,12.50
2023-04-20T15:25:56.657Z,12.60
2023-04-20T15:28:24.576Z,12.80
2023-04-20T15:30:52.532Z,12.90
2023-04-20T15:33:20.457Z,13.00
2023-04-20T15:35:48.396Z,13.00
2023-04-20T15:38:16.408Z,13.10
2023-04-20T15:40:46.651Z,13.20
2023-04-20T15:43:14.584Z,13.20
2023-04-20T15:45:44.625Z,13.30
2023-04-20T15:48:13.990Z,13.30
2023-04-20T15:50:41.991Z,13.40
2023-04-20T15:53:09.956Z,13.40
2023-04-20T15:55:39.438Z,13.40
2023-04-20T15:58:08.774Z,13.40
2023-04-20T16:00:36.705Z,13.50
2023-04-20T16:03:04.888Z,13.50
2023-04-20T16:05:32.890Z,13.50
2023-04-20T16:08:01.691Z,13.50
2023-04-20T16:10:29.823Z,13.50
2023-04-20T16:12:57.862Z,13.40
2023-04-20T16:15:27.173Z,13.40
2023-04-20T16:17:55.353Z,13.30
2023-04-20T16:20:23.376Z,13.20
2023-04-20T16:22:51.346Z,13.10
2023-04-20T16:25:23.095Z,13.10
2023-04-20T16:27:51.858Z,13.00
2023-04-20T16:30:19.917Z,12.90
2023-04-20T16:32:49.702Z,12.90
2023-04-20T16:35:17.692Z,12.80
2023-04-20T16:37:46.573Z,12.70
2023-04-20T16:40:14.549Z,12.70
2023-04-20T16:42:42.490Z,12.70
2023-04-20T16:45:10.663Z,12.60
2023-04-20T16:47:38.654Z,12.50
2023-04-20T16:50:09.114Z,12.50
2023-04-20T16:52:37.120Z,12.40
2023-04-20T16:55:05.838Z,12.30
2023-04-20T16:57:33.744Z,12.30
2023-04-20T17:00:01.732Z,12.20
2023-04-20T17:02:32.801Z,12.30
2023-04-20T17:05:01.070Z,12.20
2023-04-20T17:07:30.352Z,12.10
2023-04-20T17:09:58.251Z,12.10
2023-04-20T17:12:26.411Z,12.00
2023-04-20T17:14:55.396Z,12.00
2023-04-20T17:17:23.343Z,11.90
2023-04-20T17:19:51.268Z,11.80
2023-04-20T17:22:19.191Z,11.80
2023-04-20T17:24:48.434Z,11.80
2023-04-20T17:27:16.981Z,11.70
2023-04-20T17:29:45.133Z,11.70
2023-04-20T17:32:13.256Z,11.70
2023-04-20T17:34:44.330Z,11.70
2023-04-20T17:37:12.928Z,11.60
2023-04-20T17:39:41.062Z,11.60
2023-04-20T17:42:10.774Z,11.60
2023-04-20T17:44:38.808Z,11.50
2023-04-20T17:47:09.292Z,11.40
2023-04-20T17:49:37.317Z,11.40
2023-04-20T17:52:05.567Z,11.30
2023-04-20T17:54:33.932Z,11.30
2023-04-20T17:57:01.953Z,11.20
2023-04-20T17:59:31.368Z,11.20
2023-04-20T18:02:02.877Z,11.10
2023-04-20T18:04:31.199Z,11.10
2023-04-20T18:06:59.309Z,11.10
2023-04-20T18:09:27.190Z,11.00
2023-04-20T18:11:55.120Z,11.00
2023-04-20T18:14:23.022Z,10.90
2023-04-20T18:16:54.824Z,10.90
2023-04-20T18:19:22.831Z,10.80
2023-04-20T18:21:51.252Z,10.80
2023-04-20T18:24:19.461Z,10.70
2023-04-20T18:26:47.469Z,10.70
2023-04-20T18:29:17.764Z,10.70
2023-04-20T18:31:46.493Z,10.60
2023-04-20T18:34:16.925Z,10.60
2023-04-20T18:36:44.983Z,10.60
2023-04-20T18:39:12.849Z,10.60
2023-04-20T18:41:41.182Z,10.50
2023-04-20T18:44:09.144Z,10.50
2023-04-20T18:46:37.226Z,10.40
2023-04-20T18:49:05.283Z,10.40
2023-04-20T18:51:35.356Z,10.40
2023-04-20T18:54:03.308Z,10.30
2023-04-20T18:56:31.247Z,10.30
2023-04-20T18:59:00.275Z,10.30
2023-04-20T19:01:28.590Z,10.30
2023-04-20T19:03:56.807Z,10.30
2023-04-20T19:06:24.810Z,10.20
2023-04-20T19:08:55.342Z,10.20
2023-04-20T19:11:23.479Z,10.10
2023-04-20T19:13:51.516Z,10.10
2023-04-20T19:16:19.902Z,10.10
2023-04-20T19:18:49.248Z,10.10
2023-04-20T19:21:17.323Z,10.10
2023-04-20T19:23:45.282Z,10.00
2023-04-20T19:26:14.592Z,10.00
2023-04-20T19:28:42.691Z,9.90
2023-04-20T19:31:11.096Z,9.90
2023-04-20T19:33:39.360Z,9.90
2023-04-20T19:36:08.220Z,9.90
2023-04-20T19:38:38.388Z,9.80
2023-04-20T19:41:07.017Z,9.80
2023-04-20T19:43:37.532Z,9.80
2023-04-20T19:46:09.408Z,9.70
2023-04-20T19:48:37.571Z,9.70
2023-04-20T19:51:06.600Z,9.70
2023-04-20T19:53:34.671Z,9.70
2023-04-20T19:56:04.248Z,9.60
2023-04-20T19:58:34.314Z,9.60
2023-04-20T20:01:03.688Z,9.60
2023-04-20T20:03:31.878Z,9.60
2023-04-20T20:06:00.660Z,9.50
2023-04-20T20:08:28.712Z,9.50
2023-04-20T20:10:56.659Z,9.50
2023-04-20T20:13:24.617Z,9.40
2023-04-20T20:15:53.483Z,9.40
2023-04-20T20:18:23.343Z,9.30
2023-04-20T20:20:51.512Z,9.30
2023-04-20T20:23:19.661Z,9.30
2023-04-20T20:25:47.661Z,9.20
2023-04-20T20:28:15.631Z,9.20
2023-04-20T20:30:45.151Z,9.10
2023-04-20T20:33:13.639Z,9.10
2023-04-20T20:35:42.979Z,9.10
2023-04-20T20:38:11.082Z,9.10
2023-04-20T20:40:40.766Z,9.00
2023-04-20T20:43:08.850Z,9.00
2023-04-20T20:45:37.209Z,9.00
2023-04-20T20:48:05.676Z,9.00
2023-04-20T20:50:33.812Z,8.90
2023-04-20T20:53:03.075Z,8.90
2023-04-20T20:55:31.069Z,8.90
2023-04-20T20:57:59.057Z,8.90
2023-04-20T21:00:27.073Z,8.80
2023-04-20T21:02:55.229Z,8.80
2023-04-20T21:05:23.888Z,8.80
2023-04-20T21:07:51.920Z,8.70
2023-04-20T21:10:21.426Z,8.70
2023-04-20T21:12:49.397Z,8.70
2023-04-20T21:15:17.479Z,8.70
2023-04-20T21:17:45.493Z,8.70
2023-04-20T21:20:14.070Z,8.70
2023-04-20T21:22:42.022Z,8.60
2023-04-20T21:25:10.338Z,8.70
2023-04-20T21:27:39.690Z,8.60
2023-04-20T21:30:08.578Z,8.60
2023-04-20T21:32:36.527Z,8.60
2023-04-20T21:35:05.307Z,8.60
2023-04-20T21:37:33.283Z,8.60
2023-04-20T21:40:01.266Z,8.70
2023-04-20T21:42:29.246Z,8.60
2023-04-20T21:44:58.581Z,8.60
2023-04-20T21:47:26.625Z,8.60
2023-04-20T21:49:54.584Z,8.70
2023-04-20T21:52:23.965Z,8.70
2023-04-20T21:54:51.974Z,8.70
2023-04-20T21:57:19.923Z,8.60
2023-04-20T21:59:47.823Z,8.60
2023-04-20T22:02:17.168Z,8.60
2023-04-20T22:04:45.695Z,8.60
2023-04-20T22:07:14.624Z,8.60
2023-04-20T22:09:42.587Z,8.60
2023-04-20T22:12:10.599Z,8.60
2023-04-20T22:14:38.483Z,8.60
2023-04-20T22:17:06.398Z,8.60
2023-04-20T22:19:35.972Z,8.60
2023-04-20T22:22:03.934Z,8.60
2023-04-20T22:24:31.830Z,8.60
2023-04-20T22:26:59.759Z,8.60
2023-04-20T22:29:27.656Z,8.50
2023-04-20T22:31:56.235Z,8.40
2023-04-20T22:34:24.210Z,8.40
2023-04-20T22:36:53.514Z,8.40
2023-04-20T22:39:21.545Z,8.30
2023-04-20T22:41:49.524Z,8.30
2023-04-20T22:44:17.463Z,8.30
2023-04-20T22:46:45.425Z,8.30
2023-04-20T22:49:15.008Z,8.30
2023-04-20T22:51:43.060Z,8.20
2023-04-20T22:54:12.422Z,8.20
2023-04-20T22:56:40.325Z,8.10
2023-04-20T22:59:08.273Z,8.10
2023-04-20T23:01:36.253Z,8.10
2023-04-20T23:04:04.598Z,8.10
2023-04-20T23:06:34.400Z,8.10
2023-04-20T23:09:07.217Z,8.00
2023-04-20T23:11:38.699Z,8.00
2023-04-20T23:14:10.908Z,8.00
2023-04-20T23:16:39.893Z,8.00
2023-04-20T23:19:07.861Z,8.00
2023-04-20T23:21:35.789Z,8.00
2023-04-20T23:24:03.710Z,8.00
2023-04-20T23:26:31.630Z,8.00
2023-04-20T23:29:00.976Z,8.00
2023-04-20T23:31:28.927Z,8.00
2023-04-20T23:33:56.845Z,7.90
2023-04-20T23:36:24.735Z,7.90
2023-04-20T23:38:52.656Z,7.90
2023-04-20T23:41:20.568Z,7.90
2023-04-20T23:43:48.450Z,7.90
2023-04-20T23:46:19.050Z,7.90
2023-04-20T23:48:46.984Z,7.90
2023-04-20T23:51:14.840Z,7.80
2023-04-20T23:53:42.815Z,7.80
2023-04-20T23:56:11.142Z,7.80
2023-04-20T23:58:39.135Z,7.80
